Flight Track Log - Related Links

Times and Time Zones

All times are in EDT time to prevent confusion due to time zone crossing. See the HA116 flight status page for this flight to view local times or setup timezone preferences in your user account.

Time Position Orientation Groundspeed Altitude Reporting Facility
EDT Latitude Longitude Course Direction KTS MPH feet Rate Location/Type
Mon 10:12:13 PM 49.7500 -123.3333 316° Northwest 210 242 16,900  Level Vancouver Center
Mon 10:13:13 PM 49.7833 -123.3833 316° Northwest 210 242 17,600 800 Climbing Vancouver Center
Mon 10:14:13 PM 49.8500 -123.4333 334° Northwest 220 253 18,500 700 Climbing Vancouver Center
Mon 10:15:13 PM 49.8833 -123.4833 316° Northwest 220 253 19,000 600 Climbing Vancouver Center
Mon 10:16:13 PM 49.9500 -123.5333 334° Northwest 220 253 19,700 600 Climbing Vancouver Center
Mon 10:17:13 PM 50.0000 -123.5833 327° Northwest 220 253 20,200 550 Climbing Vancouver Center
Mon 10:18:13 PM 50.0333 -123.6500 308° West 220 253 20,800 500 Climbing Vancouver Center
Mon 10:19:13 PM 50.1000 -123.7167 327° Northwest 220 253 21,200 450 Climbing Vancouver Center
Mon 10:20:13 PM 50.1500 -123.7667 327° Northwest 220 253 21,700 400 Climbing Vancouver Center
Mon 10:21:13 PM 50.2000 -123.8167 327° Northwest 220 253 22,000 150 Climbing Vancouver Center
Mon 10:22:13 PM 50.2500 -123.8833 320° Northwest 240 276 22,000  Level Vancouver Center
Mon 10:23:13 PM 50.3167 -123.9500 327° Northwest 260 299 22,000  Level Vancouver Center
Mon 10:24:13 PM 50.3667 -124.0000 327° Northwest 260 299 22,000  Level Vancouver Center
Mon 10:25:13 PM 50.4333 -124.0833 321° Northwest 270 311 22,000  Level Vancouver Center
Mon 10:26:13 PM 50.5000 -124.1333 334° Northwest 270 311 22,000  Level Vancouver Center
Mon 10:27:13 PM 50.5500 -124.2167 313° West 270 311 22,000  Level Vancouver Center
Mon 10:28:13 PM 50.6167 -124.2667 335° Northwest 280 322 22,000  Level Vancouver Center
Mon 10:29:13 PM 50.6833 -124.3500 322° Northwest 270 311 22,000  Level Vancouver Center
Mon 10:30:13 PM 50.7333 -124.4333 313° West 270 311 22,000  Level Vancouver Center
Mon 10:31:13 PM 50.8000 -124.4833 335° Northwest 260 299 22,000  Level Vancouver Center
Mon 10:32:13 PM 50.8667 -124.5667 322° Northwest 260 299 22,000  Level Vancouver Center
Mon 10:33:13 PM 50.9167 -124.6167 328° Northwest 260 299 22,000  Level Vancouver Center
Mon 10:34:13 PM 50.9833 -124.7000 322° Northwest 270 311 22,000  Level Vancouver Center
Mon 10:35:13 PM 51.0500 -124.7500 335° Northwest 260 299 22,000  Level Vancouver Center
Mon 10:36:13 PM 51.1000 -124.8333 314° West 260 299 22,000  Level Vancouver Center
Mon 10:37:13 PM 51.1667 -124.8833 335° Northwest 260 299 22,000  Level Vancouver Center
Mon 10:38:13 PM 51.2167 -124.9667 314° West 270 311 22,000  Level Vancouver Center
Mon 10:39:13 PM 51.2833 -125.0333 328° Northwest 260 299 22,000  Level Vancouver Center
Mon 10:40:13 PM 51.3500 -125.1000 328° Northwest 270 311 22,000  Level Vancouver Center
Mon 10:41:13 PM 51.4000 -125.1667 320° Northwest 260 299 22,000  Level Vancouver Center
Mon 10:42:13 PM 51.4667 -125.2500 322° Northwest 260 299 22,000  Level Vancouver Center
Mon 10:43:13 PM 51.5167 -125.3000 328° Northwest 260 299 22,000  Level Vancouver Center
Mon 10:44:13 PM 51.5833 -125.3833 322° Northwest 260 299 22,000  Level Vancouver Center
Mon 10:45:13 PM 51.6500 -125.4333 335° Northwest 260 299 22,000  Level Vancouver Center
Mon 10:46:13 PM 51.7000 -125.5167 314° West 260 299 22,000  Level Vancouver Center
Mon 10:47:13 PM 51.7667 -125.6000 322° Northwest 260 299 22,000  Level Vancouver Center
Mon 10:48:13 PM 51.8167 -125.6667 321° Northwest 260 299 22,000  Level Vancouver Center
Mon 10:49:13 PM 51.8833 -125.7500 322° Northwest 260 299 22,000  Level Vancouver Center
Mon 10:50:13 PM 51.9333 -125.8000 328° Northwest 270 311 22,000  Level Vancouver Center
Mon 10:51:13 PM 52.0000 -125.8833 322° Northwest 260 299 22,000  Level Vancouver Center
Mon 10:52:13 PM 52.0500 -125.9500 321° Northwest 260 299 22,000  Level Vancouver Center
Mon 10:53:13 PM 52.1000 -126.0333 314° West 260 299 22,000  Level Vancouver Center
Mon 10:54:13 PM 52.1667 -126.0833 335° Northwest 260 299 22,000  Level Vancouver Center
Mon 10:55:13 PM 52.2167 -126.1667 314° West 260 299 22,000  Level Vancouver Center
Mon 10:56:13 PM 52.2833 -126.2333 329° Northwest 260 299 22,000  Level Vancouver Center
Mon 10:57:13 PM 52.3333 -126.2833 329° Northwest 260 299 22,000  Level Vancouver Center
Mon 10:58:13 PM 52.4000 -126.3667 323° Northwest 260 299 22,000  Level Vancouver Center
Mon 10:59:13 PM 52.4500 -126.4333 321° Northwest 260 299 22,000  Level Vancouver Center
Mon 11:00:13 PM 52.5167 -126.5167 323° Northwest 260 299 22,000  Level Vancouver Center
Mon 11:01:13 PM 52.5833 -126.5667 336° Northwest 260 299 22,000  Level Vancouver Center
Mon 11:02:13 PM 52.6333 -126.6500 315° West 260 299 22,000  Level Vancouver Center
Mon 11:03:13 PM 52.7000 -126.7167 329° Northwest 260 299 22,000  Level Vancouver Center
Mon 11:04:13 PM 52.7500 -126.8000 315° West 260 299 22,000  Level Vancouver Center
Mon 11:05:13 PM 52.8000 -126.8667 321° Northwest 260 299 22,000  Level Vancouver Center
Mon 11:06:13 PM 52.8667 -126.9500 323° Northwest 270 311 22,000  Level Vancouver Center
Mon 11:07:13 PM 52.9167 -127.0167 321° Northwest 270 311 22,000  Level Vancouver Center
Mon 11:08:13 PM 52.9833 -127.1000 323° Northwest 270 311 22,000  Level Vancouver Center
Mon 11:09:13 PM 53.0500 -127.1500 336° Northwest 280 322 22,000  Level Vancouver Center
Mon 11:10:13 PM 53.1000 -127.2500 310° West 260 299 22,000  Level Vancouver Center
Mon 11:11:13 PM 53.1667 -127.3000 336° Northwest 260 299 22,000  Level Vancouver Center
Mon 11:12:13 PM 53.2167 -127.4000 310° West 250 288 22,000  Level Vancouver Center
Mon 11:13:13 PM 53.2667 -127.4500 329° Northwest 260 299 22,000  Level Vancouver Center
Mon 11:14:13 PM 53.3167 -127.5500 310° West 270 311 22,000  Level Vancouver Center
Mon 11:15:13 PM 53.3833 -127.6000 336° Northwest 260 299 22,000  Level Vancouver Center
Mon 11:16:13 PM 53.4500 -127.7000 318° Northwest 260 299 22,000 -400 Level Vancouver Center
Mon 11:17:13 PM 53.5000 -127.7500 329° Northwest 270 311 21,200 -1,050 Descending Vancouver Center
Mon 11:18:13 PM 53.5667 -127.8500 318° Northwest 300 345 19,900 -1,300 Descending Vancouver Center
Mon 11:19:13 PM 53.6500 -127.9333 329° Northwest 320 368 18,600 -1,450 Descending Vancouver Center
Mon 11:20:13 PM 53.7000 -128.0333 310° West 320 368 17,000 -1,450 Descending Vancouver Center
Mon 11:21:13 PM 53.7667 -128.1167 324° Northwest 320 368 15,700 -1,300 Descending Vancouver Center
Mon 11:22:13 PM 53.8500 -128.2167 325° Northwest 330 380 14,400 -1,350 Descending Vancouver Center
Mon 11:23:13 PM 53.9167 -128.3000 324° Northwest 310 357 13,000 -1,400 Descending Vancouver Center
Mon 11:24:13 PM 53.9833 -128.4000 319° Northwest 300 345 11,600 -1,350 Descending Vancouver Center
Mon 11:25:13 PM 54.0333 -128.4833 316° Northwest 300 345 10,300 -1,300 Descending Vancouver Center
Mon 11:26:13 PM 54.1000 -128.5167 344° North 280 322 9,000 -1,300 Descending Vancouver Center
Mon 11:28:00 PM 54.2144 -128.5167 North  Level FlightAware Approximate
Mon 11:35:00 PM 54.4667 -128.5667 352° North  Level FlightAware Approximate
Mon 11:36:00 PM 54.4664 -128.5775 352° North  Level Estimated
Mon 11:37:00 PM 54.4667 -128.5667 352° North  Level FlightAware Approximate
Mon 11:38:00 PM 54.4664 -128.5775 352° North  Level Estimated
Mon 11:39:00 PM 54.4667 -128.5667 352° North  Level FlightAware Approximate
Mon 11:40:00 PM 54.4664 -128.5775 352° North  Level Estimated

Login

Don't have an account? Register now (free) for customized features, flight alerts, and more!